sensor_id;sensor_type;location;lat;lon;timestamp;temperature;humidity
21298;DHT22;10808;48.010;11.326;2022-09-27T00:00:33;12.20;99.90
21298;DHT22;10808;48.010;11.326;2022-09-27T00:02:59;12.20;99.90
21298;DHT22;10808;48.010;11.326;2022-09-27T00:05:25;12.20;99.90
21298;DHT22;10808;48.010;11.326;2022-09-27T00:07:51;12.20;99.90
21298;DHT22;10808;48.010;11.326;2022-09-27T00:10:17;12.20;99.90
21298;DHT22;10808;48.010;11.326;2022-09-27T00:12:44;12.20;99.90
21298;DHT22;10808;48.010;11.326;2022-09-27T00:15:10;12.30;99.90
21298;DHT22;10808;48.010;11.326;2022-09-27T00:17:37;12.20;99.90
21298;DHT22;10808;48.010;11.326;2022-09-27T00:20:05;12.20;99.90
21298;DHT22;10808;48.010;11.326;2022-09-27T00:22:34;12.20;99.90
21298;DHT22;10808;48.010;11.326;2022-09-27T00:25:00;12.20;99.90
21298;DHT22;10808;48.010;11.326;2022-09-27T00:27:26;12.20;99.90
21298;DHT22;10808;48.010;11.326;2022-09-27T00:29:54;12.20;99.90
21298;DHT22;10808;48.010;11.326;2022-09-27T00:32:20;12.20;99.90
21298;DHT22;10808;48.010;11.326;2022-09-27T00:34:46;12.20;99.90
21298;DHT22;10808;48.010;11.326;2022-09-27T00:37:12;12.20;99.90
21298;DHT22;10808;48.010;11.326;2022-09-27T00:39:38;12.20;99.90
21298;DHT22;10808;48.010;11.326;2022-09-27T00:42:08;12.10;99.90
21298;DHT22;10808;48.010;11.326;2022-09-27T00:49:56;12.10;99.90
21298;DHT22;10808;48.010;11.326;2022-09-27T00:55:12;12.10;99.90
21298;DHT22;10808;48.010;11.326;2022-09-27T00:57:41;12.00;99.90
21298;DHT22;10808;48.010;11.326;2022-09-27T01:00:11;11.90;99.90
21298;DHT22;10808;48.010;11.326;2022-09-27T01:02:40;11.90;99.90
21298;DHT22;10808;48.010;11.326;2022-09-27T01:05:09;11.90;99.90
21298;DHT22;10808;48.010;11.326;2022-09-27T01:07:36;11.90;99.90
21298;DHT22;10808;48.010;11.326;2022-09-27T01:10:02;11.90;99.90
21298;DHT22;10808;48.010;11.326;2022-09-27T01:12:31;11.90;99.90
21298;DHT22;10808;48.010;11.326;2022-09-27T01:23:47;11.70;99.90
21298;DHT22;10808;48.010;11.326;2022-09-27T01:32:03;11.60;99.90
21298;DHT22;10808;48.010;11.326;2022-09-27T01:37:37;11.70;99.90
21298;DHT22;10808;48.010;11.326;2022-09-27T01:40:09;11.70;99.90
21298;DHT22;10808;48.010;11.326;2022-09-27T01:42:47;11.70;99.90
21298;DHT22;10808;48.010;11.326;2022-09-27T01:45:29;11.70;99.90
21298;DHT22;10808;48.010;11.326;2022-09-27T01:48:02;11.70;99.90
21298;DHT22;10808;48.010;11.326;2022-09-27T01:50:38;11.60;99.90
21298;DHT22;10808;48.010;11.326;2022-09-27T01:53:08;11.60;99.90
21298;DHT22;10808;48.010;11.326;2022-09-27T01:55:38;11.60;99.90
21298;DHT22;10808;48.010;11.326;2022-09-27T02:00:46;11.60;99.90
21298;DHT22;10808;48.010;11.326;2022-09-27T02:03:21;11.60;99.90
21298;DHT22;10808;48.010;11.326;2022-09-27T02:05:56;11.60;99.90
21298;DHT22;10808;48.010;11.326;2022-09-27T02:11:18;11.60;99.90
21298;DHT22;10808;48.010;11.326;2022-09-27T02:13:57;11.60;99.90
21298;DHT22;10808;48.010;11.326;2022-09-27T02:16:40;11.60;99.90
21298;DHT22;10808;48.010;11.326;2022-09-27T02:19:17;11.50;99.90
21298;DHT22;10808;48.010;11.326;2022-09-27T02:24:23;11.50;99.90
21298;DHT22;10808;48.010;11.326;2022-09-27T02:26:59;11.50;99.90
21298;DHT22;10808;48.010;11.326;2022-09-27T02:29:38;11.40;99.90
21298;DHT22;10808;48.010;11.326;2022-09-27T02:32:06;11.40;99.90
21298;DHT22;10808;48.010;11.326;2022-09-27T02:34:33;11.30;99.90
21298;DHT22;10808;48.010;11.326;2022-09-27T02:37:00;11.30;99.90
21298;DHT22;10808;48.010;11.326;2022-09-27T02:39:27;11.30;99.90
21298;DHT22;10808;48.010;11.326;2022-09-27T02:41:53;11.30;99.90
21298;DHT22;10808;48.010;11.326;2022-09-27T02:44:23;11.30;99.90
21298;DHT22;10808;48.010;11.326;2022-09-27T02:53:10;11.40;99.90
21298;DHT22;10808;48.010;11.326;2022-09-27T02:55:50;11.50;99.90
21298;DHT22;10808;48.010;11.326;2022-09-27T03:03:42;11.40;99.90
21298;DHT22;10808;48.010;11.326;2022-09-27T03:06:13;11.50;99.90
21298;DHT22;10808;48.010;11.326;2022-09-27T03:08:42;11.50;99.90
21298;DHT22;10808;48.010;11.326;2022-09-27T03:11:09;11.50;99.90
21298;DHT22;10808;48.010;11.326;2022-09-27T03:13:35;11.50;99.90
21298;DHT22;10808;48.010;11.326;2022-09-27T03:16:05;11.50;99.90
21298;DHT22;10808;48.010;11.326;2022-09-27T03:18:32;11.50;99.90
21298;DHT22;10808;48.010;11.326;2022-09-27T03:20:58;11.40;99.90
21298;DHT22;10808;48.010;11.326;2022-09-27T03:23:24;11.40;99.90
21298;DHT22;10808;48.010;11.326;2022-09-27T03:25:50;11.40;99.90
21298;DHT22;10808;48.010;11.326;2022-09-27T03:28:17;11.50;99.90
21298;DHT22;10808;48.010;11.326;2022-09-27T03:30:44;11.40;99.90
21298;DHT22;10808;48.010;11.326;2022-09-27T03:33:11;11.50;99.90
21298;DHT22;10808;48.010;11.326;2022-09-27T03:35:38;11.50;99.90
21298;DHT22;10808;48.010;11.326;2022-09-27T03:38:04;11.50;99.90
21298;DHT22;10808;48.010;11.326;2022-09-27T03:40:32;11.50;99.90
21298;DHT22;10808;48.010;11.326;2022-09-27T03:42:58;11.50;99.90
21298;DHT22;10808;48.010;11.326;2022-09-27T03:45:24;11.50;99.90
21298;DHT22;10808;48.010;11.326;2022-09-27T03:47:50;11.50;99.90
21298;DHT22;10808;48.010;11.326;2022-09-27T03:50:16;11.50;99.90
21298;DHT22;10808;48.010;11.326;2022-09-27T03:52:43;11.50;99.90
21298;DHT22;10808;48.010;11.326;2022-09-27T03:55:10;11.50;99.90
21298;DHT22;10808;48.010;11.326;2022-09-27T03:57:37;11.50;99.90
21298;DHT22;10808;48.010;11.326;2022-09-27T04:00:04;11.50;99.90
21298;DHT22;10808;48.010;11.326;2022-09-27T04:02:31;11.50;99.90
21298;DHT22;10808;48.010;11.326;2022-09-27T04:04:57;11.40;99.90
21298;DHT22;10808;48.010;11.326;2022-09-27T04:07:24;11.40;99.90
21298;DHT22;10808;48.010;11.326;2022-09-27T04:09:50;11.40;99.90
21298;DHT22;10808;48.010;11.326;2022-09-27T04:12:16;11.20;99.90
21298;DHT22;10808;48.010;11.326;2022-09-27T04:14:42;11.30;99.90
21298;DHT22;10808;48.010;11.326;2022-09-27T04:17:08;11.20;99.90
21298;DHT22;10808;48.010;11.326;2022-09-27T04:19:34;11.20;99.90
21298;DHT22;10808;48.010;11.326;2022-09-27T04:22:01;11.10;99.90
21298;DHT22;10808;48.010;11.326;2022-09-27T04:24:27;11.10;99.90
21298;DHT22;10808;48.010;11.326;2022-09-27T04:26:53;11.00;99.90
21298;DHT22;10808;48.010;11.326;2022-09-27T04:29:19;11.10;99.90
21298;DHT22;10808;48.010;11.326;2022-09-27T04:31:47;11.00;99.90
21298;DHT22;10808;48.010;11.326;2022-09-27T04:34:13;11.00;99.90
21298;DHT22;10808;48.010;11.326;2022-09-27T04:36:39;11.10;99.90
21298;DHT22;10808;48.010;11.326;2022-09-27T04:39:06;11.00;99.90
21298;DHT22;10808;48.010;11.326;2022-09-27T04:41:33;11.10;99.90
21298;DHT22;10808;48.010;11.326;2022-09-27T04:44:01;11.10;99.90
21298;DHT22;10808;48.010;11.326;2022-09-27T04:46:28;11.10;99.90
21298;DHT22;10808;48.010;11.326;2022-09-27T04:48:59;11.10;99.90
21298;DHT22;10808;48.010;11.326;2022-09-27T04:51:25;11.10;99.90
21298;DHT22;10808;48.010;11.326;2022-09-27T04:53:52;11.10;99.90
21298;DHT22;10808;48.010;11.326;2022-09-27T04:56:18;11.00;99.90
21298;DHT22;10808;48.010;11.326;2022-09-27T04:58:44;11.00;99.90
21298;DHT22;10808;48.010;11.326;2022-09-27T05:01:11;10.90;99.90
21298;DHT22;10808;48.010;11.326;2022-09-27T05:03:37;10.80;99.90
21298;DHT22;10808;48.010;11.326;2022-09-27T05:06:03;10.70;99.90
21298;DHT22;10808;48.010;11.326;2022-09-27T05:08:30;10.70;99.90
21298;DHT22;10808;48.010;11.326;2022-09-27T05:10:56;10.70;99.90
21298;DHT22;10808;48.010;11.326;2022-09-27T05:13:22;10.70;99.90
21298;DHT22;10808;48.010;11.326;2022-09-27T05:15:48;10.70;99.90
21298;DHT22;10808;48.010;11.326;2022-09-27T05:18:14;10.60;99.90
21298;DHT22;10808;48.010;11.326;2022-09-27T05:20:40;10.60;99.90
21298;DHT22;10808;48.010;11.326;2022-09-27T05:23:06;10.50;99.90
21298;DHT22;10808;48.010;11.326;2022-09-27T05:25:33;10.50;99.90
21298;DHT22;10808;48.010;11.326;2022-09-27T05:28:00;10.50;99.90
21298;DHT22;10808;48.010;11.326;2022-09-27T05:30:26;10.50;99.90
21298;DHT22;10808;48.010;11.326;2022-09-27T05:32:52;10.40;99.90
21298;DHT22;10808;48.010;11.326;2022-09-27T05:35:19;10.40;99.90
21298;DHT22;10808;48.010;11.326;2022-09-27T05:37:53;10.30;99.90
21298;DHT22;10808;48.010;11.326;2022-09-27T05:40:20;10.30;99.90
21298;DHT22;10808;48.010;11.326;2022-09-27T05:42:50;10.30;99.90
21298;DHT22;10808;48.010;11.326;2022-09-27T05:45:17;10.30;99.90
21298;DHT22;10808;48.010;11.326;2022-09-27T05:47:43;10.20;99.90
21298;DHT22;10808;48.010;11.326;2022-09-27T05:50:09;10.20;99.90
21298;DHT22;10808;48.010;11.326;2022-09-27T05:52:35;10.20;99.90
21298;DHT22;10808;48.010;11.326;2022-09-27T05:55:01;10.20;99.90
21298;DHT22;10808;48.010;11.326;2022-09-27T05:57:27;10.10;99.90
21298;DHT22;10808;48.010;11.326;2022-09-27T05:59:53;10.10;99.90
21298;DHT22;10808;48.010;11.326;2022-09-27T06:02:19;10.10;99.90
21298;DHT22;10808;48.010;11.326;2022-09-27T06:04:45;10.10;99.90
21298;DHT22;10808;48.010;11.326;2022-09-27T06:07:11;10.10;99.90
21298;DHT22;10808;48.010;11.326;2022-09-27T06:09:37;10.10;99.90
21298;DHT22;10808;48.010;11.326;2022-09-27T06:12:03;10.10;99.90
21298;DHT22;10808;48.010;11.326;2022-09-27T06:14:29;10.10;99.90
21298;DHT22;10808;48.010;11.326;2022-09-27T06:16:55;10.10;99.90
21298;DHT22;10808;48.010;11.326;2022-09-27T06:19:21;10.10;99.90
21298;DHT22;10808;48.010;11.326;2022-09-27T06:21:50;10.10;99.90
21298;DHT22;10808;48.010;11.326;2022-09-27T06:24:17;10.10;99.90
21298;DHT22;10808;48.010;11.326;2022-09-27T06:26:43;10.10;99.90
21298;DHT22;10808;48.010;11.326;2022-09-27T06:29:10;10.10;99.90
21298;DHT22;10808;48.010;11.326;2022-09-27T06:31:36;10.20;99.90
21298;DHT22;10808;48.010;11.326;2022-09-27T06:34:02;10.20;99.90
21298;DHT22;10808;48.010;11.326;2022-09-27T06:36:29;10.20;99.90
21298;DHT22;10808;48.010;11.326;2022-09-27T06:38:55;10.30;99.90
21298;DHT22;10808;48.010;11.326;2022-09-27T06:41:22;10.30;99.90
21298;DHT22;10808;48.010;11.326;2022-09-27T06:43:48;10.40;99.90
21298;DHT22;10808;48.010;11.326;2022-09-27T06:46:15;10.50;99.90
21298;DHT22;10808;48.010;11.326;2022-09-27T06:48:41;10.50;99.90
21298;DHT22;10808;48.010;11.326;2022-09-27T06:51:07;10.60;99.90
21298;DHT22;10808;48.010;11.326;2022-09-27T06:53:34;10.60;99.90
21298;DHT22;10808;48.010;11.326;2022-09-27T06:56:00;10.60;99.90
21298;DHT22;10808;48.010;11.326;2022-09-27T06:58:27;10.70;99.90
21298;DHT22;10808;48.010;11.326;2022-09-27T07:01:13;10.70;99.90
21298;DHT22;10808;48.010;11.326;2022-09-27T07:03:39;10.70;99.90
21298;DHT22;10808;48.010;11.326;2022-09-27T07:06:17;10.70;99.90
21298;DHT22;10808;48.010;11.326;2022-09-27T07:08:49;10.80;99.90
21298;DHT22;10808;48.010;11.326;2022-09-27T07:11:15;10.80;99.90
21298;DHT22;10808;48.010;11.326;2022-09-27T07:13:41;10.90;99.90
21298;DHT22;10808;48.010;11.326;2022-09-27T07:16:12;10.90;99.90
21298;DHT22;10808;48.010;11.326;2022-09-27T07:18:40;11.00;99.90
21298;DHT22;10808;48.010;11.326;2022-09-27T07:21:07;11.00;99.90
21298;DHT22;10808;48.010;11.326;2022-09-27T07:23:34;11.00;99.90
21298;DHT22;10808;48.010;11.326;2022-09-27T07:26:04;11.00;99.90
21298;DHT22;10808;48.010;11.326;2022-09-27T07:28:32;11.10;99.90
21298;DHT22;10808;48.010;11.326;2022-09-27T07:30:59;11.10;99.90
21298;DHT22;10808;48.010;11.326;2022-09-27T07:33:27;11.10;99.90
21298;DHT22;10808;48.010;11.326;2022-09-27T07:35:53;11.20;99.90
21298;DHT22;10808;48.010;11.326;2022-09-27T07:38:19;11.20;99.90
21298;DHT22;10808;48.010;11.326;2022-09-27T07:40:46;11.20;99.90
21298;DHT22;10808;48.010;11.326;2022-09-27T07:43:14;11.20;99.90
21298;DHT22;10808;48.010;11.326;2022-09-27T07:45:40;11.20;99.90
21298;DHT22;10808;48.010;11.326;2022-09-27T07:48:09;11.30;99.90
21298;DHT22;10808;48.010;11.326;2022-09-27T07:50:35;11.30;99.90
21298;DHT22;10808;48.010;11.326;2022-09-27T07:53:03;11.30;99.90
21298;DHT22;10808;48.010;11.326;2022-09-27T07:55:30;11.30;99.90
21298;DHT22;10808;48.010;11.326;2022-09-27T07:58:04;11.30;99.90
21298;DHT22;10808;48.010;11.326;2022-09-27T08:00:30;11.20;99.90
21298;DHT22;10808;48.010;11.326;2022-09-27T08:02:56;11.10;99.90
21298;DHT22;10808;48.010;11.326;2022-09-27T08:05:22;11.10;99.90
21298;DHT22;10808;48.010;11.326;2022-09-27T08:07:53;11.10;99.90
21298;DHT22;10808;48.010;11.326;2022-09-27T08:10:21;11.10;99.90
21298;DHT22;10808;48.010;11.326;2022-09-27T08:12:50;11.30;99.90
21298;DHT22;10808;48.010;11.326;2022-09-27T08:15:16;11.50;99.90
21298;DHT22;10808;48.010;11.326;2022-09-27T08:17:42;11.60;99.90
21298;DHT22;10808;48.010;11.326;2022-09-27T08:20:08;11.50;99.90
21298;DHT22;10808;48.010;11.326;2022-09-27T08:22:40;11.40;99.90
21298;DHT22;10808;48.010;11.326;2022-09-27T08:25:06;11.40;99.90
21298;DHT22;10808;48.010;11.326;2022-09-27T08:27:32;11.40;99.90
21298;DHT22;10808;48.010;11.326;2022-09-27T08:29:58;11.20;99.90
21298;DHT22;10808;48.010;11.326;2022-09-27T08:32:25;10.90;99.90
21298;DHT22;10808;48.010;11.326;2022-09-27T08:34:53;10.70;99.90
21298;DHT22;10808;48.010;11.326;2022-09-27T08:37:19;10.60;99.90
21298;DHT22;10808;48.010;11.326;2022-09-27T08:39:45;10.50;99.90
21298;DHT22;10808;48.010;11.326;2022-09-27T08:45:04;10.30;99.90
21298;DHT22;10808;48.010;11.326;2022-09-27T08:47:43;10.20;99.90
21298;DHT22;10808;48.010;11.326;2022-09-27T08:50:27;10.20;99.90
21298;DHT22;10808;48.010;11.326;2022-09-27T08:55:24;10.20;99.90
21298;DHT22;10808;48.010;11.326;2022-09-27T08:57:57;10.20;99.90
21298;DHT22;10808;48.010;11.326;2022-09-27T09:00:24;10.20;99.90
21298;DHT22;10808;48.010;11.326;2022-09-27T09:02:52;10.20;99.90
21298;DHT22;10808;48.010;11.326;2022-09-27T09:05:29;10.30;99.90
21298;DHT22;10808;48.010;11.326;2022-09-27T09:10:54;10.50;99.90
21298;DHT22;10808;48.010;11.326;2022-09-27T09:13:51;10.60;99.90
21298;DHT22;10808;48.010;11.326;2022-09-27T09:21:54;11.00;99.90
21298;DHT22;10808;48.010;11.326;2022-09-27T09:27:33;11.20;99.90
21298;DHT22;10808;48.010;11.326;2022-09-27T09:30:19;11.20;99.90
21298;DHT22;10808;48.010;11.326;2022-09-27T09:39:02;11.20;99.90
21298;DHT22;10808;48.010;11.326;2022-09-27T09:44:16;11.10;99.90
21298;DHT22;10808;48.010;11.326;2022-09-27T09:46:50;11.00;99.90
21298;DHT22;10808;48.010;11.326;2022-09-27T09:49:26;10.90;99.90
21298;DHT22;10808;48.010;11.326;2022-09-27T09:52:09;10.70;99.90
21298;DHT22;10808;48.010;11.326;2022-09-27T09:57:29;10.60;99.90
21298;DHT22;10808;48.010;11.326;2022-09-27T10:00:22;10.40;99.90
21298;DHT22;10808;48.010;11.326;2022-09-27T10:02:48;10.40;99.90
21298;DHT22;10808;48.010;11.326;2022-09-27T10:05:18;10.30;99.90
21298;DHT22;10808;48.010;11.326;2022-09-27T10:07:46;10.30;99.90
21298;DHT22;10808;48.010;11.326;2022-09-27T10:10:15;10.20;99.90
21298;DHT22;10808;48.010;11.326;2022-09-27T10:12:42;10.20;99.90
21298;DHT22;10808;48.010;11.326;2022-09-27T10:15:15;10.10;99.90
21298;DHT22;10808;48.010;11.326;2022-09-27T10:17:45;10.20;99.90
21298;DHT22;10808;48.010;11.326;2022-09-27T10:20:26;10.30;99.90
21298;DHT22;10808;48.010;11.326;2022-09-27T10:22:58;10.30;99.90
21298;DHT22;10808;48.010;11.326;2022-09-27T10:25:44;10.40;99.90
21298;DHT22;10808;48.010;11.326;2022-09-27T10:31:00;10.50;99.90
21298;DHT22;10808;48.010;11.326;2022-09-27T10:33:28;10.50;99.90
21298;DHT22;10808;48.010;11.326;2022-09-27T10:35:58;10.60;99.90
21298;DHT22;10808;48.010;11.326;2022-09-27T10:38:33;10.60;99.90
21298;DHT22;10808;48.010;11.326;2022-09-27T10:41:21;10.50;99.90
21298;DHT22;10808;48.010;11.326;2022-09-27T10:43:49;10.50;99.90
21298;DHT22;10808;48.010;11.326;2022-09-27T10:46:25;10.50;99.90
21298;DHT22;10808;48.010;11.326;2022-09-27T10:49:18;10.60;99.90
21298;DHT22;10808;48.010;11.326;2022-09-27T10:51:50;10.60;99.90
21298;DHT22;10808;48.010;11.326;2022-09-27T10:56:54;10.70;99.90
21298;DHT22;10808;48.010;11.326;2022-09-27T10:59:22;10.70;99.90
21298;DHT22;10808;48.010;11.326;2022-09-27T11:01:49;10.70;99.90
21298;DHT22;10808;48.010;11.326;2022-09-27T11:04:29;10.80;99.90
21298;DHT22;10808;48.010;11.326;2022-09-27T11:07:17;10.80;99.90
21298;DHT22;10808;48.010;11.326;2022-09-27T11:09:53;10.90;99.90
21298;DHT22;10808;48.010;11.326;2022-09-27T11:12:20;11.00;99.90
21298;DHT22;10808;48.010;11.326;2022-09-27T11:14:52;11.10;99.90
21298;DHT22;10808;48.010;11.326;2022-09-27T11:18:03;11.20;99.90
21298;DHT22;10808;48.010;11.326;2022-09-27T11:20:45;11.20;99.90
21298;DHT22;10808;48.010;11.326;2022-09-27T11:23:31;11.20;99.90
21298;DHT22;10808;48.010;11.326;2022-09-27T11:29:00;11.30;99.90
21298;DHT22;10808;48.010;11.326;2022-09-27T11:31:48;11.50;99.90
21298;DHT22;10808;48.010;11.326;2022-09-27T11:34:38;11.50;99.90
21298;DHT22;10808;48.010;11.326;2022-09-27T11:49:00;11.50;99.90
21298;DHT22;10808;48.010;11.326;2022-09-27T12:08:31;11.40;99.90
21298;DHT22;10808;48.010;11.326;2022-09-27T12:11:22;11.40;99.90
21298;DHT22;10808;48.010;11.326;2022-09-27T12:16:22;11.60;99.90
21298;DHT22;10808;48.010;11.326;2022-09-27T12:18:49;11.60;99.90
21298;DHT22;10808;48.010;11.326;2022-09-27T12:21:18;11.60;99.90
21298;DHT22;10808;48.010;11.326;2022-09-27T12:23:49;11.60;99.90
21298;DHT22;10808;48.010;11.326;2022-09-27T12:26:22;11.70;99.90
21298;DHT22;10808;48.010;11.326;2022-09-27T12:29:01;11.90;99.90
21298;DHT22;10808;48.010;11.326;2022-09-27T12:31:32;12.00;99.90
21298;DHT22;10808;48.010;11.326;2022-09-27T12:34:07;12.10;99.90
21298;DHT22;10808;48.010;11.326;2022-09-27T12:36:38;12.10;99.90
21298;DHT22;10808;48.010;11.326;2022-09-27T12:39:19;12.10;99.90
21298;DHT22;10808;48.010;11.326;2022-09-27T12:41:51;12.20;99.90
21298;DHT22;10808;48.010;11.326;2022-09-27T12:44:21;12.10;99.90
21298;DHT22;10808;48.010;11.326;2022-09-27T12:46:54;12.20;99.90
21298;DHT22;10808;48.010;11.326;2022-09-27T12:49:35;12.30;99.90
21298;DHT22;10808;48.010;11.326;2022-09-27T12:52:09;12.30;99.90
21298;DHT22;10808;48.010;11.326;2022-09-27T12:57:26;12.30;99.90
21298;DHT22;10808;48.010;11.326;2022-09-27T13:00:22;12.30;99.90
21298;DHT22;10808;48.010;11.326;2022-09-27T13:06:29;12.40;99.90
21298;DHT22;10808;48.010;11.326;2022-09-27T13:12:07;12.60;99.90
21298;DHT22;10808;48.010;11.326;2022-09-27T13:14:57;12.70;99.90
21298;DHT22;10808;48.010;11.326;2022-09-27T13:20:37;12.60;99.90
21298;DHT22;10808;48.010;11.326;2022-09-27T13:31:13;12.70;99.90
21298;DHT22;10808;48.010;11.326;2022-09-27T13:33:51;12.60;99.90
21298;DHT22;10808;48.010;11.326;2022-09-27T13:46:56;12.00;99.90
21298;DHT22;10808;48.010;11.326;2022-09-27T13:49:37;11.90;99.90
21298;DHT22;10808;48.010;11.326;2022-09-27T13:52:31;11.70;99.90
21298;DHT22;10808;48.010;11.326;2022-09-27T13:55:16;11.60;99.90
21298;DHT22;10808;48.010;11.326;2022-09-27T13:58:01;11.50;99.90
21298;DHT22;10808;48.010;11.326;2022-09-27T14:00:37;11.40;99.90
21298;DHT22;10808;48.010;11.326;2022-09-27T14:05:48;11.20;99.90
21298;DHT22;10808;48.010;11.326;2022-09-27T14:08:45;11.20;99.90
21298;DHT22;10808;48.010;11.326;2022-09-27T14:11:16;11.20;99.90
21298;DHT22;10808;48.010;11.326;2022-09-27T14:13:44;11.20;99.90
21298;DHT22;10808;48.010;11.326;2022-09-27T14:16:16;11.20;99.90
21298;DHT22;10808;48.010;11.326;2022-09-27T14:19:03;11.20;99.90
21298;DHT22;10808;48.010;11.326;2022-09-27T14:21:35;11.30;99.90
21298;DHT22;10808;48.010;11.326;2022-09-27T14:24:28;11.50;99.90
21298;DHT22;10808;48.010;11.326;2022-09-27T14:27:14;11.90;99.90
21298;DHT22;10808;48.010;11.326;2022-09-27T14:29:48;12.20;99.90
21298;DHT22;10808;48.010;11.326;2022-09-27T14:32:26;12.50;99.90
21298;DHT22;10808;48.010;11.326;2022-09-27T14:35:22;12.60;99.90
21298;DHT22;10808;48.010;11.326;2022-09-27T14:38:11;12.50;99.90
21298;DHT22;10808;48.010;11.326;2022-09-27T14:40:56;12.20;99.90
21298;DHT22;10808;48.010;11.326;2022-09-27T14:43:23;12.00;99.90
21298;DHT22;10808;48.010;11.326;2022-09-27T14:45:56;11.90;99.90
21298;DHT22;10808;48.010;11.326;2022-09-27T14:48:33;11.80;99.90
21298;DHT22;10808;48.010;11.326;2022-09-27T14:51:17;11.70;99.90
21298;DHT22;10808;48.010;11.326;2022-09-27T14:53:47;11.60;99.90
21298;DHT22;10808;48.010;11.326;2022-09-27T14:56:18;11.60;99.90
21298;DHT22;10808;48.010;11.326;2022-09-27T14:58:50;11.60;99.90
21298;DHT22;10808;48.010;11.326;2022-09-27T15:01:18;11.60;99.90
21298;DHT22;10808;48.010;11.326;2022-09-27T15:03:49;11.60;99.90
21298;DHT22;10808;48.010;11.326;2022-09-27T15:06:18;11.60;99.90
21298;DHT22;10808;48.010;11.326;2022-09-27T15:08:46;11.60;99.90
21298;DHT22;10808;48.010;11.326;2022-09-27T15:11:15;11.50;99.90
21298;DHT22;10808;48.010;11.326;2022-09-27T15:13:43;11.50;99.90
21298;DHT22;10808;48.010;11.326;2022-09-27T15:16:16;11.50;99.90
21298;DHT22;10808;48.010;11.326;2022-09-27T15:18:46;11.50;99.90
21298;DHT22;10808;48.010;11.326;2022-09-27T15:21:26;11.40;99.90
21298;DHT22;10808;48.010;11.326;2022-09-27T15:23:52;11.50;99.90
21298;DHT22;10808;48.010;11.326;2022-09-27T15:26:26;11.60;99.90
21298;DHT22;10808;48.010;11.326;2022-09-27T15:29:01;11.70;99.90
21298;DHT22;10808;48.010;11.326;2022-09-27T15:31:33;11.80;99.90
21298;DHT22;10808;48.010;11.326;2022-09-27T15:34:16;11.80;99.90
21298;DHT22;10808;48.010;11.326;2022-09-27T15:37:03;11.90;99.90
21298;DHT22;10808;48.010;11.326;2022-09-27T15:39:36;11.90;99.90
21298;DHT22;10808;48.010;11.326;2022-09-27T15:42:11;11.80;99.90
21298;DHT22;10808;48.010;11.326;2022-09-27T15:44:43;11.70;99.90
21298;DHT22;10808;48.010;11.326;2022-09-27T15:52:53;11.60;99.90
21298;DHT22;10808;48.010;11.326;2022-09-27T15:55:26;11.60;99.90
21298;DHT22;10808;48.010;11.326;2022-09-27T15:58:04;11.60;99.90
21298;DHT22;10808;48.010;11.326;2022-09-27T16:00:33;11.50;99.90
21298;DHT22;10808;48.010;11.326;2022-09-27T16:03:00;11.40;99.90
21298;DHT22;10808;48.010;11.326;2022-09-27T16:05:26;11.40;99.90
21298;DHT22;10808;48.010;11.326;2022-09-27T16:07:54;11.40;99.90
21298;DHT22;10808;48.010;11.326;2022-09-27T16:10:36;11.30;99.90
21298;DHT22;10808;48.010;11.326;2022-09-27T16:13:03;11.20;99.90
21298;DHT22;10808;48.010;11.326;2022-09-27T16:15:29;11.20;99.90
21298;DHT22;10808;48.010;11.326;2022-09-27T16:17:55;11.10;99.90
21298;DHT22;10808;48.010;11.326;2022-09-27T16:20:25;11.10;99.90
21298;DHT22;10808;48.010;11.326;2022-09-27T16:22:52;11.10;99.90
21298;DHT22;10808;48.010;11.326;2022-09-27T16:25:19;11.10;99.90
21298;DHT22;10808;48.010;11.326;2022-09-27T16:27:47;11.10;99.90
21298;DHT22;10808;48.010;11.326;2022-09-27T16:30:13;11.00;99.90
21298;DHT22;10808;48.010;11.326;2022-09-27T16:32:45;11.00;99.90
21298;DHT22;10808;48.010;11.326;2022-09-27T16:35:12;10.90;99.90
21298;DHT22;10808;48.010;11.326;2022-09-27T16:37:40;10.90;99.90
21298;DHT22;10808;48.010;11.326;2022-09-27T16:40:07;10.80;99.90
21298;DHT22;10808;48.010;11.326;2022-09-27T16:42:35;10.80;99.90
21298;DHT22;10808;48.010;11.326;2022-09-27T16:45:03;10.80;99.90
21298;DHT22;10808;48.010;11.326;2022-09-27T16:47:29;10.80;99.90
21298;DHT22;10808;48.010;11.326;2022-09-27T16:49:55;10.80;99.90
21298;DHT22;10808;48.010;11.326;2022-09-27T16:52:40;10.70;99.90
21298;DHT22;10808;48.010;11.326;2022-09-27T16:55:08;10.60;99.90
21298;DHT22;10808;48.010;11.326;2022-09-27T16:57:34;10.50;99.90
21298;DHT22;10808;48.010;11.326;2022-09-27T17:00:03;10.50;99.90
21298;DHT22;10808;48.010;11.326;2022-09-27T17:02:30;10.40;99.90
21298;DHT22;10808;48.010;11.326;2022-09-27T17:04:57;10.40;99.90
21298;DHT22;10808;48.010;11.326;2022-09-27T17:07:23;10.20;99.90
21298;DHT22;10808;48.010;11.326;2022-09-27T17:09:50;10.20;99.90
21298;DHT22;10808;48.010;11.326;2022-09-27T17:12:16;10.10;99.90
21298;DHT22;10808;48.010;11.326;2022-09-27T17:14:42;10.10;99.90
21298;DHT22;10808;48.010;11.326;2022-09-27T17:17:08;10.00;99.90
21298;DHT22;10808;48.010;11.326;2022-09-27T17:19:34;10.00;99.90
21298;DHT22;10808;48.010;11.326;2022-09-27T17:22:02;10.10;99.90
21298;DHT22;10808;48.010;11.326;2022-09-27T17:24:28;10.20;99.90
21298;DHT22;10808;48.010;11.326;2022-09-27T17:26:54;10.20;99.90
21298;DHT22;10808;48.010;11.326;2022-09-27T17:29:20;10.20;99.90
21298;DHT22;10808;48.010;11.326;2022-09-27T17:31:46;10.30;99.90
21298;DHT22;10808;48.010;11.326;2022-09-27T17:34:13;10.20;99.90
21298;DHT22;10808;48.010;11.326;2022-09-27T17:36:42;10.00;99.90
21298;DHT22;10808;48.010;11.326;2022-09-27T17:39:14;9.90;99.90
21298;DHT22;10808;48.010;11.326;2022-09-27T17:41:41;9.80;99.90
21298;DHT22;10808;48.010;11.326;2022-09-27T17:44:11;9.70;99.90
21298;DHT22;10808;48.010;11.326;2022-09-27T17:46:38;9.70;99.90
21298;DHT22;10808;48.010;11.326;2022-09-27T17:49:05;9.70;99.90
21298;DHT22;10808;48.010;11.326;2022-09-27T17:51:58;9.70;99.90
21298;DHT22;10808;48.010;11.326;2022-09-27T17:54:25;9.70;99.90
21298;DHT22;10808;48.010;11.326;2022-09-27T17:56:53;9.60;99.90
21298;DHT22;10808;48.010;11.326;2022-09-27T17:59:20;9.60;99.90
21298;DHT22;10808;48.010;11.326;2022-09-27T18:01:47;9.60;99.90
21298;DHT22;10808;48.010;11.326;2022-09-27T18:04:16;9.50;99.90
21298;DHT22;10808;48.010;11.326;2022-09-27T18:06:44;9.50;99.90
21298;DHT22;10808;48.010;11.326;2022-09-27T18:09:13;9.50;99.90
21298;DHT22;10808;48.010;11.326;2022-09-27T18:11:39;9.50;99.90